sensor_id;sensor_type;location;lat;lon;timestamp;temperature;humidity
1686;DHT22;840;47.980;7.830;2024-02-23T00:00:54;7.70;99.90
1686;DHT22;840;47.980;7.830;2024-02-23T00:03:21;7.70;99.90
1686;DHT22;840;47.980;7.830;2024-02-23T00:05:47;7.70;99.90
1686;DHT22;840;47.980;7.830;2024-02-23T00:08:14;7.70;99.90
1686;DHT22;840;47.980;7.830;2024-02-23T00:10:41;7.70;99.90
1686;DHT22;840;47.980;7.830;2024-02-23T00:13:09;7.70;99.90
1686;DHT22;840;47.980;7.830;2024-02-23T00:15:36;7.70;99.90
1686;DHT22;840;47.980;7.830;2024-02-23T00:18:02;7.80;99.90
1686;DHT22;840;47.980;7.830;2024-02-23T00:20:30;7.70;99.90
1686;DHT22;840;47.980;7.830;2024-02-23T00:22:56;7.70;99.90
1686;DHT22;840;47.980;7.830;2024-02-23T00:25:23;7.70;99.90
1686;DHT22;840;47.980;7.830;2024-02-23T00:27:50;7.70;99.90
1686;DHT22;840;47.980;7.830;2024-02-23T00:30:18;7.70;99.90
1686;DHT22;840;47.980;7.830;2024-02-23T00:32:45;7.70;99.90
1686;DHT22;840;47.980;7.830;2024-02-23T00:35:11;7.80;99.90
1686;DHT22;840;47.980;7.830;2024-02-23T00:37:38;7.70;99.90
1686;DHT22;840;47.980;7.830;2024-02-23T00:40:06;7.70;99.90
1686;DHT22;840;47.980;7.830;2024-02-23T00:42:33;7.70;99.90
1686;DHT22;840;47.980;7.830;2024-02-23T00:44:59;7.70;99.90
1686;DHT22;840;47.980;7.830;2024-02-23T00:47:28;7.70;99.90
1686;DHT22;840;47.980;7.830;2024-02-23T00:49:54;7.60;99.90
1686;DHT22;840;47.980;7.830;2024-02-23T00:52:21;7.60;99.90
1686;DHT22;840;47.980;7.830;2024-02-23T00:54:48;7.50;99.90
1686;DHT22;840;47.980;7.830;2024-02-23T00:57:15;7.50;99.90
1686;DHT22;840;47.980;7.830;2024-02-23T00:59:44;7.50;99.90
1686;DHT22;840;47.980;7.830;2024-02-23T01:02:11;7.50;99.90
1686;DHT22;840;47.980;7.830;2024-02-23T01:04:39;7.50;99.90
1686;DHT22;840;47.980;7.830;2024-02-23T01:07:05;7.50;99.90
1686;DHT22;840;47.980;7.830;2024-02-23T01:09:32;7.40;99.90
1686;DHT22;840;47.980;7.830;2024-02-23T01:12:00;7.40;99.90
1686;DHT22;840;47.980;7.830;2024-02-23T01:14:26;7.50;99.90
1686;DHT22;840;47.980;7.830;2024-02-23T01:16:53;7.40;99.90
1686;DHT22;840;47.980;7.830;2024-02-23T01:19:20;7.40;99.90
1686;DHT22;840;47.980;7.830;2024-02-23T01:21:48;7.30;99.90
1686;DHT22;840;47.980;7.830;2024-02-23T01:24:21;7.30;99.90
1686;DHT22;840;47.980;7.830;2024-02-23T01:26:47;7.30;99.90
1686;DHT22;840;47.980;7.830;2024-02-23T01:29:14;7.30;99.90
1686;DHT22;840;47.980;7.830;2024-02-23T01:31:42;7.30;99.90
1686;DHT22;840;47.980;7.830;2024-02-23T01:34:08;7.20;99.90
1686;DHT22;840;47.980;7.830;2024-02-23T01:36:35;7.20;99.90
1686;DHT22;840;47.980;7.830;2024-02-23T01:39:03;7.20;99.90
1686;DHT22;840;47.980;7.830;2024-02-23T01:41:30;7.20;99.90
1686;DHT22;840;47.980;7.830;2024-02-23T01:43:57;7.20;99.90
1686;DHT22;840;47.980;7.830;2024-02-23T01:46:24;7.10;99.90
1686;DHT22;840;47.980;7.830;2024-02-23T01:48:51;7.10;99.90
1686;DHT22;840;47.980;7.830;2024-02-23T01:51:18;7.10;99.90
1686;DHT22;840;47.980;7.830;2024-02-23T01:53:45;7.10;99.90
1686;DHT22;840;47.980;7.830;2024-02-23T01:56:13;7.10;99.90
1686;DHT22;840;47.980;7.830;2024-02-23T01:58:43;7.00;99.90
1686;DHT22;840;47.980;7.830;2024-02-23T02:01:10;7.00;99.90
1686;DHT22;840;47.980;7.830;2024-02-23T02:03:38;7.00;99.90
1686;DHT22;840;47.980;7.830;2024-02-23T02:06:05;7.00;99.90
1686;DHT22;840;47.980;7.830;2024-02-23T02:08:33;7.00;99.90
1686;DHT22;840;47.980;7.830;2024-02-23T02:11:00;7.00;99.90
1686;DHT22;840;47.980;7.830;2024-02-23T02:13:29;7.00;99.90
1686;DHT22;840;47.980;7.830;2024-02-23T02:16:01;7.00;99.90
1686;DHT22;840;47.980;7.830;2024-02-23T02:18:28;6.90;99.90
1686;DHT22;840;47.980;7.830;2024-02-23T02:20:56;6.90;99.90
1686;DHT22;840;47.980;7.830;2024-02-23T02:23:23;6.90;99.90
1686;DHT22;840;47.980;7.830;2024-02-23T02:25:52;6.90;99.90
1686;DHT22;840;47.980;7.830;2024-02-23T02:28:19;6.90;99.90
1686;DHT22;840;47.980;7.830;2024-02-23T02:30:48;6.90;99.90
1686;DHT22;840;47.980;7.830;2024-02-23T02:33:14;6.90;99.90
1686;DHT22;840;47.980;7.830;2024-02-23T02:35:41;6.90;99.90
1686;DHT22;840;47.980;7.830;2024-02-23T02:38:08;6.80;99.90
1686;DHT22;840;47.980;7.830;2024-02-23T02:40:35;6.90;99.90
1686;DHT22;840;47.980;7.830;2024-02-23T02:43:02;6.90;99.90
1686;DHT22;840;47.980;7.830;2024-02-23T02:45:29;6.90;99.90
1686;DHT22;840;47.980;7.830;2024-02-23T02:47:57;7.00;99.90
1686;DHT22;840;47.980;7.830;2024-02-23T02:50:23;7.00;99.90
1686;DHT22;840;47.980;7.830;2024-02-23T02:52:50;7.00;99.90
1686;DHT22;840;47.980;7.830;2024-02-23T02:55:17;7.00;99.90
1686;DHT22;840;47.980;7.830;2024-02-23T02:57:44;7.00;99.90
1686;DHT22;840;47.980;7.830;2024-02-23T03:00:11;7.00;99.90
1686;DHT22;840;47.980;7.830;2024-02-23T03:02:38;7.10;99.90
1686;DHT22;840;47.980;7.830;2024-02-23T03:05:07;7.10;99.90
1686;DHT22;840;47.980;7.830;2024-02-23T03:07:34;7.00;99.90
1686;DHT22;840;47.980;7.830;2024-02-23T03:10:02;7.10;99.90
1686;DHT22;840;47.980;7.830;2024-02-23T03:12:28;7.10;99.90
1686;DHT22;840;47.980;7.830;2024-02-23T03:14:55;7.10;99.90
1686;DHT22;840;47.980;7.830;2024-02-23T03:17:22;7.00;99.90
1686;DHT22;840;47.980;7.830;2024-02-23T03:19:49;7.00;99.90
1686;DHT22;840;47.980;7.830;2024-02-23T03:22:18;7.00;99.90
1686;DHT22;840;47.980;7.830;2024-02-23T03:24:44;7.00;99.90
1686;DHT22;840;47.980;7.830;2024-02-23T03:27:11;6.90;99.90
1686;DHT22;840;47.980;7.830;2024-02-23T03:29:38;7.00;99.90
1686;DHT22;840;47.980;7.830;2024-02-23T03:32:06;7.00;99.90
1686;DHT22;840;47.980;7.830;2024-02-23T03:34:32;7.00;99.90
1686;DHT22;840;47.980;7.830;2024-02-23T03:36:59;7.00;99.90
1686;DHT22;840;47.980;7.830;2024-02-23T03:39:29;7.00;99.90
1686;DHT22;840;47.980;7.830;2024-02-23T03:41:57;7.00;99.90
1686;DHT22;840;47.980;7.830;2024-02-23T03:44:24;7.00;99.90
1686;DHT22;840;47.980;7.830;2024-02-23T03:46:50;7.00;99.90
1686;DHT22;840;47.980;7.830;2024-02-23T03:49:17;7.00;99.90
1686;DHT22;840;47.980;7.830;2024-02-23T03:51:44;7.00;99.90
1686;DHT22;840;47.980;7.830;2024-02-23T03:54:11;7.00;99.90
1686;DHT22;840;47.980;7.830;2024-02-23T03:56:39;6.90;99.90
1686;DHT22;840;47.980;7.830;2024-02-23T03:59:06;6.90;99.90
1686;DHT22;840;47.980;7.830;2024-02-23T04:01:35;6.90;99.90
1686;DHT22;840;47.980;7.830;2024-02-23T04:04:02;6.80;99.90
1686;DHT22;840;47.980;7.830;2024-02-23T04:06:29;6.70;99.90
1686;DHT22;840;47.980;7.830;2024-02-23T04:08:54;6.70;99.90
1686;DHT22;840;47.980;7.830;2024-02-23T04:11:21;6.70;99.90
1686;DHT22;840;47.980;7.830;2024-02-23T04:13:49;6.60;99.90
1686;DHT22;840;47.980;7.830;2024-02-23T04:16:16;6.60;99.90
1686;DHT22;840;47.980;7.830;2024-02-23T04:18:42;6.50;99.90
1686;DHT22;840;47.980;7.830;2024-02-23T04:21:09;6.50;99.90
1686;DHT22;840;47.980;7.830;2024-02-23T04:23:36;6.50;99.90
1686;DHT22;840;47.980;7.830;2024-02-23T04:26:03;6.50;99.90
1686;DHT22;840;47.980;7.830;2024-02-23T04:28:29;6.40;99.90
1686;DHT22;840;47.980;7.830;2024-02-23T04:31:00;6.40;99.90
1686;DHT22;840;47.980;7.830;2024-02-23T04:33:27;6.40;99.90
1686;DHT22;840;47.980;7.830;2024-02-23T04:35:53;6.40;99.90
1686;DHT22;840;47.980;7.830;2024-02-23T04:38:20;6.30;99.90
1686;DHT22;840;47.980;7.830;2024-02-23T04:40:47;6.30;99.90
1686;DHT22;840;47.980;7.830;2024-02-23T04:43:13;6.30;99.90
1686;DHT22;840;47.980;7.830;2024-02-23T04:45:40;6.30;99.90
1686;DHT22;840;47.980;7.830;2024-02-23T04:48:09;6.20;99.90
1686;DHT22;840;47.980;7.830;2024-02-23T04:50:36;6.20;99.90
1686;DHT22;840;47.980;7.830;2024-02-23T04:53:03;6.20;99.90
1686;DHT22;840;47.980;7.830;2024-02-23T04:55:29;6.20;99.90
1686;DHT22;840;47.980;7.830;2024-02-23T04:57:56;6.20;99.90
1686;DHT22;840;47.980;7.830;2024-02-23T05:00:23;6.20;99.90
1686;DHT22;840;47.980;7.830;2024-02-23T05:02:54;6.20;99.90
1686;DHT22;840;47.980;7.830;2024-02-23T05:05:22;6.20;99.90
1686;DHT22;840;47.980;7.830;2024-02-23T05:07:48;6.20;99.90
1686;DHT22;840;47.980;7.830;2024-02-23T05:10:16;6.30;99.90
1686;DHT22;840;47.980;7.830;2024-02-23T05:12:43;6.20;99.90
1686;DHT22;840;47.980;7.830;2024-02-23T05:15:10;6.20;99.90
1686;DHT22;840;47.980;7.830;2024-02-23T05:17:37;6.20;99.90
1686;DHT22;840;47.980;7.830;2024-02-23T05:20:04;6.20;99.90
1686;DHT22;840;47.980;7.830;2024-02-23T05:22:35;6.20;99.90
1686;DHT22;840;47.980;7.830;2024-02-23T05:25:02;6.20;99.90
1686;DHT22;840;47.980;7.830;2024-02-23T05:27:28;6.20;99.90
1686;DHT22;840;47.980;7.830;2024-02-23T05:29:55;6.20;99.90
1686;DHT22;840;47.980;7.830;2024-02-23T05:32:22;6.20;99.90
1686;DHT22;840;47.980;7.830;2024-02-23T05:34:48;6.20;99.90
1686;DHT22;840;47.980;7.830;2024-02-23T05:37:18;6.20;99.90
1686;DHT22;840;47.980;7.830;2024-02-23T05:39:46;6.20;99.90
1686;DHT22;840;47.980;7.830;2024-02-23T05:42:13;6.20;99.90
1686;DHT22;840;47.980;7.830;2024-02-23T05:44:43;6.20;99.90
1686;DHT22;840;47.980;7.830;2024-02-23T05:47:10;6.20;99.90
1686;DHT22;840;47.980;7.830;2024-02-23T05:49:39;6.20;99.90
1686;DHT22;840;47.980;7.830;2024-02-23T05:52:05;6.20;99.90
1686;DHT22;840;47.980;7.830;2024-02-23T05:54:32;6.10;99.90
1686;DHT22;840;47.980;7.830;2024-02-23T05:57:00;6.20;99.90
1686;DHT22;840;47.980;7.830;2024-02-23T05:59:28;6.10;99.90
1686;DHT22;840;47.980;7.830;2024-02-23T06:01:55;6.10;99.90
1686;DHT22;840;47.980;7.830;2024-02-23T06:04:22;6.10;99.90
1686;DHT22;840;47.980;7.830;2024-02-23T06:06:49;6.10;99.90
1686;DHT22;840;47.980;7.830;2024-02-23T06:09:15;6.10;99.90
1686;DHT22;840;47.980;7.830;2024-02-23T06:11:42;6.10;99.90
1686;DHT22;840;47.980;7.830;2024-02-23T06:14:10;6.10;99.90
1686;DHT22;840;47.980;7.830;2024-02-23T06:16:37;6.10;99.90
1686;DHT22;840;47.980;7.830;2024-02-23T06:19:04;6.10;99.90
1686;DHT22;840;47.980;7.830;2024-02-23T06:21:30;6.10;99.90
1686;DHT22;840;47.980;7.830;2024-02-23T06:23:58;6.10;99.90
1686;DHT22;840;47.980;7.830;2024-02-23T06:26:25;6.10;99.90
1686;DHT22;840;47.980;7.830;2024-02-23T06:28:51;6.10;99.90
1686;DHT22;840;47.980;7.830;2024-02-23T06:31:19;6.20;99.90
1686;DHT22;840;47.980;7.830;2024-02-23T06:33:46;6.20;99.90
1686;DHT22;840;47.980;7.830;2024-02-23T06:36:14;6.20;99.90
1686;DHT22;840;47.980;7.830;2024-02-23T06:38:41;6.20;99.90
1686;DHT22;840;47.980;7.830;2024-02-23T06:41:08;6.20;99.90
1686;DHT22;840;47.980;7.830;2024-02-23T06:43:36;6.30;99.90
1686;DHT22;840;47.980;7.830;2024-02-23T06:46:05;6.20;99.90
1686;DHT22;840;47.980;7.830;2024-02-23T06:48:33;6.20;99.90
1686;DHT22;840;47.980;7.830;2024-02-23T06:51:00;6.20;99.90
1686;DHT22;840;47.980;7.830;2024-02-23T06:53:27;6.20;99.90
1686;DHT22;840;47.980;7.830;2024-02-23T06:55:54;6.20;99.90
1686;DHT22;840;47.980;7.830;2024-02-23T06:58:21;6.10;99.90
1686;DHT22;840;47.980;7.830;2024-02-23T07:00:48;6.20;99.90
1686;DHT22;840;47.980;7.830;2024-02-23T07:03:14;6.20;99.90
1686;DHT22;840;47.980;7.830;2024-02-23T07:05:43;6.10;99.90
1686;DHT22;840;47.980;7.830;2024-02-23T07:08:10;6.10;99.90
1686;DHT22;840;47.980;7.830;2024-02-23T07:10:37;6.10;99.90
1686;DHT22;840;47.980;7.830;2024-02-23T07:13:04;6.20;99.90
1686;DHT22;840;47.980;7.830;2024-02-23T07:15:31;6.20;99.90
1686;DHT22;840;47.980;7.830;2024-02-23T07:17:58;6.20;99.90
1686;DHT22;840;47.980;7.830;2024-02-23T07:20:24;6.20;99.90
1686;DHT22;840;47.980;7.830;2024-02-23T07:22:52;6.30;99.90
1686;DHT22;840;47.980;7.830;2024-02-23T07:25:20;6.30;99.90
1686;DHT22;840;47.980;7.830;2024-02-23T07:27:47;6.30;99.90
1686;DHT22;840;47.980;7.830;2024-02-23T07:30:15;6.30;99.90
1686;DHT22;840;47.980;7.830;2024-02-23T07:32:42;6.40;99.90
1686;DHT22;840;47.980;7.830;2024-02-23T07:35:09;6.40;99.90
1686;DHT22;840;47.980;7.830;2024-02-23T07:37:36;6.50;99.90
1686;DHT22;840;47.980;7.830;2024-02-23T07:40:05;6.50;99.90
1686;DHT22;840;47.980;7.830;2024-02-23T07:42:33;6.60;99.90
1686;DHT22;840;47.980;7.830;2024-02-23T07:45:05;6.60;99.90
1686;DHT22;840;47.980;7.830;2024-02-23T07:47:32;6.60;99.90
1686;DHT22;840;47.980;7.830;2024-02-23T07:49:59;6.70;99.90
1686;DHT22;840;47.980;7.830;2024-02-23T07:52:26;6.70;99.90
1686;DHT22;840;47.980;7.830;2024-02-23T07:54:53;6.70;99.90
1686;DHT22;840;47.980;7.830;2024-02-23T07:57:21;6.70;99.90
1686;DHT22;840;47.980;7.830;2024-02-23T07:59:48;6.70;99.90
1686;DHT22;840;47.980;7.830;2024-02-23T08:02:15;6.70;99.90
1686;DHT22;840;47.980;7.830;2024-02-23T08:04:41;6.70;99.90
1686;DHT22;840;47.980;7.830;2024-02-23T08:07:08;6.70;99.90
1686;DHT22;840;47.980;7.830;2024-02-23T08:09:35;6.80;99.90
1686;DHT22;840;47.980;7.830;2024-02-23T08:12:02;6.80;99.90
1686;DHT22;840;47.980;7.830;2024-02-23T08:14:30;6.90;99.90
1686;DHT22;840;47.980;7.830;2024-02-23T08:16:58;6.90;99.90
1686;DHT22;840;47.980;7.830;2024-02-23T08:19:25;6.90;99.90
1686;DHT22;840;47.980;7.830;2024-02-23T08:21:51;6.90;99.90
1686;DHT22;840;47.980;7.830;2024-02-23T08:24:18;7.00;99.90
1686;DHT22;840;47.980;7.830;2024-02-23T08:26:45;7.00;99.90
1686;DHT22;840;47.980;7.830;2024-02-23T08:29:11;7.00;99.90
1686;DHT22;840;47.980;7.830;2024-02-23T08:31:39;7.00;99.90
1686;DHT22;840;47.980;7.830;2024-02-23T08:34:06;7.00;99.90
1686;DHT22;840;47.980;7.830;2024-02-23T08:36:32;7.10;99.90
1686;DHT22;840;47.980;7.830;2024-02-23T08:38:59;7.10;99.90
1686;DHT22;840;47.980;7.830;2024-02-23T08:41:26;7.20;99.90
1686;DHT22;840;47.980;7.830;2024-02-23T08:43:52;7.30;99.90
1686;DHT22;840;47.980;7.830;2024-02-23T08:46:20;7.30;99.90
1686;DHT22;840;47.980;7.830;2024-02-23T08:48:49;7.50;99.90
1686;DHT22;840;47.980;7.830;2024-02-23T08:51:16;7.50;99.90
1686;DHT22;840;47.980;7.830;2024-02-23T08:53:42;7.60;99.90
1686;DHT22;840;47.980;7.830;2024-02-23T08:56:09;7.70;99.90
1686;DHT22;840;47.980;7.830;2024-02-23T08:58:37;7.70;99.90
1686;DHT22;840;47.980;7.830;2024-02-23T09:01:04;7.80;99.90
1686;DHT22;840;47.980;7.830;2024-02-23T09:03:30;7.90;99.90
1686;DHT22;840;47.980;7.830;2024-02-23T09:05:59;7.90;99.90
1686;DHT22;840;47.980;7.830;2024-02-23T09:08:25;8.10;99.90
1686;DHT22;840;47.980;7.830;2024-02-23T09:10:52;8.10;99.90
1686;DHT22;840;47.980;7.830;2024-02-23T09:13:19;8.10;99.90
1686;DHT22;840;47.980;7.830;2024-02-23T09:15:46;8.20;99.90
1686;DHT22;840;47.980;7.830;2024-02-23T09:18:12;8.20;99.90
1686;DHT22;840;47.980;7.830;2024-02-23T09:20:39;8.30;99.90
1686;DHT22;840;47.980;7.830;2024-02-23T09:23:07;8.30;99.90
1686;DHT22;840;47.980;7.830;2024-02-23T09:25:34;8.40;99.90
1686;DHT22;840;47.980;7.830;2024-02-23T09:28:01;8.40;99.90
1686;DHT22;840;47.980;7.830;2024-02-23T09:30:28;8.40;99.90
1686;DHT22;840;47.980;7.830;2024-02-23T09:32:54;8.40;99.90
1686;DHT22;840;47.980;7.830;2024-02-23T09:35:21;8.40;99.90
1686;DHT22;840;47.980;7.830;2024-02-23T09:37:48;8.40;99.90
1686;DHT22;840;47.980;7.830;2024-02-23T09:40:16;8.40;99.90
1686;DHT22;840;47.980;7.830;2024-02-23T09:42:43;8.50;99.90
1686;DHT22;840;47.980;7.830;2024-02-23T09:45:15;8.50;99.90
1686;DHT22;840;47.980;7.830;2024-02-23T09:47:43;8.50;99.90
1686;DHT22;840;47.980;7.830;2024-02-23T09:50:10;8.50;99.90
1686;DHT22;840;47.980;7.830;2024-02-23T09:52:38;8.50;99.90
1686;DHT22;840;47.980;7.830;2024-02-23T09:55:05;8.50;99.90
1686;DHT22;840;47.980;7.830;2024-02-23T09:57:34;8.50;99.90
1686;DHT22;840;47.980;7.830;2024-02-23T10:00:01;8.50;99.90
1686;DHT22;840;47.980;7.830;2024-02-23T10:02:31;8.60;99.90
1686;DHT22;840;47.980;7.830;2024-02-23T10:05:00;8.60;99.90
1686;DHT22;840;47.980;7.830;2024-02-23T10:07:28;8.70;99.90
1686;DHT22;840;47.980;7.830;2024-02-23T10:09:54;8.80;99.90
1686;DHT22;840;47.980;7.830;2024-02-23T10:12:21;8.80;99.90
1686;DHT22;840;47.980;7.830;2024-02-23T10:14:49;8.80;99.90
1686;DHT22;840;47.980;7.830;2024-02-23T10:17:17;8.90;99.90
1686;DHT22;840;47.980;7.830;2024-02-23T10:19:44;8.90;99.90
1686;DHT22;840;47.980;7.830;2024-02-23T10:22:11;8.90;99.90
1686;DHT22;840;47.980;7.830;2024-02-23T10:24:38;8.90;99.90
1686;DHT22;840;47.980;7.830;2024-02-23T10:27:04;8.90;99.90
1686;DHT22;840;47.980;7.830;2024-02-23T10:29:31;8.90;99.90
1686;DHT22;840;47.980;7.830;2024-02-23T10:32:01;9.00;99.90
1686;DHT22;840;47.980;7.830;2024-02-23T10:34:29;9.00;99.90
1686;DHT22;840;47.980;7.830;2024-02-23T10:36:57;9.10;99.90
1686;DHT22;840;47.980;7.830;2024-02-23T10:39:24;9.20;99.90
1686;DHT22;840;47.980;7.830;2024-02-23T10:41:57;9.30;99.90
1686;DHT22;840;47.980;7.830;2024-02-23T10:44:28;9.40;99.90
1686;DHT22;840;47.980;7.830;2024-02-23T10:46:55;9.40;99.90
1686;DHT22;840;47.980;7.830;2024-02-23T10:49:26;9.50;99.90
1686;DHT22;840;47.980;7.830;2024-02-23T10:51:54;9.50;99.90
1686;DHT22;840;47.980;7.830;2024-02-23T10:54:21;9.50;99.90
1686;DHT22;840;47.980;7.830;2024-02-23T10:56:49;9.50;99.90
1686;DHT22;840;47.980;7.830;2024-02-23T10:59:17;9.60;99.90
1686;DHT22;840;47.980;7.830;2024-02-23T11:01:45;9.70;99.90
1686;DHT22;840;47.980;7.830;2024-02-23T11:04:13;9.80;99.90
1686;DHT22;840;47.980;7.830;2024-02-23T11:06:42;9.90;99.90
1686;DHT22;840;47.980;7.830;2024-02-23T11:09:12;10.10;99.90
1686;DHT22;840;47.980;7.830;2024-02-23T11:11:39;10.20;99.90
1686;DHT22;840;47.980;7.830;2024-02-23T11:14:07;10.20;99.90
1686;DHT22;840;47.980;7.830;2024-02-23T11:16:38;10.20;99.90
1686;DHT22;840;47.980;7.830;2024-02-23T11:19:06;10.10;99.90
1686;DHT22;840;47.980;7.830;2024-02-23T11:21:35;10.10;99.90
1686;DHT22;840;47.980;7.830;2024-02-23T11:24:04;10.10;99.90
1686;DHT22;840;47.980;7.830;2024-02-23T11:26:31;10.00;99.90
1686;DHT22;840;47.980;7.830;2024-02-23T11:28:59;10.00;99.90
1686;DHT22;840;47.980;7.830;2024-02-23T11:31:35;10.10;99.90
1686;DHT22;840;47.980;7.830;2024-02-23T11:34:08;10.10;99.90
1686;DHT22;840;47.980;7.830;2024-02-23T11:36:35;10.10;99.90
1686;DHT22;840;47.980;7.830;2024-02-23T11:39:06;10.10;99.90
1686;DHT22;840;47.980;7.830;2024-02-23T11:41:32;10.20;99.90
1686;DHT22;840;47.980;7.830;2024-02-23T11:43:59;10.30;99.90
1686;DHT22;840;47.980;7.830;2024-02-23T11:46:26;10.40;99.90
1686;DHT22;840;47.980;7.830;2024-02-23T11:48:52;10.60;99.90
1686;DHT22;840;47.980;7.830;2024-02-23T11:51:20;10.80;99.90
1686;DHT22;840;47.980;7.830;2024-02-23T11:53:47;10.80;99.90
1686;DHT22;840;47.980;7.830;2024-02-23T11:56:15;10.90;99.90
1686;DHT22;840;47.980;7.830;2024-02-23T11:58:43;11.00;99.90
1686;DHT22;840;47.980;7.830;2024-02-23T12:01:10;10.90;99.90
1686;DHT22;840;47.980;7.830;2024-02-23T12:03:37;10.90;99.90
1686;DHT22;840;47.980;7.830;2024-02-23T12:06:05;10.90;99.90
1686;DHT22;840;47.980;7.830;2024-02-23T12:08:33;10.90;99.90
1686;DHT22;840;47.980;7.830;2024-02-23T12:11:04;11.00;99.90
1686;DHT22;840;47.980;7.830;2024-02-23T12:13:32;10.90;99.90
1686;DHT22;840;47.980;7.830;2024-02-23T12:16:00;10.80;99.90
1686;DHT22;840;47.980;7.830;2024-02-23T12:18:28;10.80;99.90
1686;DHT22;840;47.980;7.830;2024-02-23T12:20:59;10.80;99.90
1686;DHT22;840;47.980;7.830;2024-02-23T12:23:26;10.80;99.90
1686;DHT22;840;47.980;7.830;2024-02-23T12:25:54;10.70;99.90
1686;DHT22;840;47.980;7.830;2024-02-23T12:28:21;10.70;99.90
1686;DHT22;840;47.980;7.830;2024-02-23T12:30:59;10.70;99.90
1686;DHT22;840;47.980;7.830;2024-02-23T12:33:27;10.70;99.90
1686;DHT22;840;47.980;7.830;2024-02-23T12:35:54;10.70;99.90
1686;DHT22;840;47.980;7.830;2024-02-23T12:38:20;10.70;99.90
1686;DHT22;840;47.980;7.830;2024-02-23T12:40:47;10.70;99.90
1686;DHT22;840;47.980;7.830;2024-02-23T12:43:13;10.80;99.90
1686;DHT22;840;47.980;7.830;2024-02-23T12:45:40;10.80;99.90
1686;DHT22;840;47.980;7.830;2024-02-23T12:48:08;10.90;99.90
1686;DHT22;840;47.980;7.830;2024-02-23T12:50:34;10.90;99.90
1686;DHT22;840;47.980;7.830;2024-02-23T12:53:02;11.10;99.90
1686;DHT22;840;47.980;7.830;2024-02-23T12:55:29;11.20;99.90
1686;DHT22;840;47.980;7.830;2024-02-23T12:57:55;11.30;99.90
1686;DHT22;840;47.980;7.830;2024-02-23T13:00:22;11.50;99.90
1686;DHT22;840;47.980;7.830;2024-02-23T13:02:49;11.60;99.90
1686;DHT22;840;47.980;7.830;2024-02-23T13:05:17;11.70;99.90
1686;DHT22;840;47.980;7.830;2024-02-23T13:07:45;11.80;99.90
1686;DHT22;840;47.980;7.830;2024-02-23T13:10:12;11.80;99.90
1686;DHT22;840;47.980;7.830;2024-02-23T13:12:39;11.70;99.90
1686;DHT22;840;47.980;7.830;2024-02-23T13:15:06;11.70;99.90
1686;DHT22;840;47.980;7.830;2024-02-23T13:17:33;11.80;99.90
1686;DHT22;840;47.980;7.830;2024-02-23T13:20:00;11.90;99.90
1686;DHT22;840;47.980;7.830;2024-02-23T13:22:28;11.90;99.90
1686;DHT22;840;47.980;7.830;2024-02-23T13:24:54;11.90;99.90
1686;DHT22;840;47.980;7.830;2024-02-23T13:27:21;11.90;99.90
1686;DHT22;840;47.980;7.830;2024-02-23T13:29:48;11.80;99.90
1686;DHT22;840;47.980;7.830;2024-02-23T13:32:15;11.80;99.90
1686;DHT22;840;47.980;7.830;2024-02-23T13:34:41;11.80;99.90
1686;DHT22;840;47.980;7.830;2024-02-23T13:37:08;11.80;99.60
1686;DHT22;840;47.980;7.830;2024-02-23T13:39:36;11.70;99.90
1686;DHT22;840;47.980;7.830;2024-02-23T13:42:03;11.70;99.90
1686;DHT22;840;47.980;7.830;2024-02-23T13:44:33;11.70;99.90
1686;DHT22;840;47.980;7.830;2024-02-23T13:47:00;11.70;99.90
1686;DHT22;840;47.980;7.830;2024-02-23T13:49:26;11.70;99.90
1686;DHT22;840;47.980;7.830;2024-02-23T13:51:53;11.70;99.90
1686;DHT22;840;47.980;7.830;2024-02-23T13:54:20;11.80;99.90
1686;DHT22;840;47.980;7.830;2024-02-23T13:56:48;11.80;99.90
1686;DHT22;840;47.980;7.830;2024-02-23T13:59:15;11.80;99.90
1686;DHT22;840;47.980;7.830;2024-02-23T14:01:42;11.70;99.90
1686;DHT22;840;47.980;7.830;2024-02-23T14:04:10;11.60;99.90
1686;DHT22;840;47.980;7.830;2024-02-23T14:06:37;11.50;99.90
1686;DHT22;840;47.980;7.830;2024-02-23T14:09:04;11.40;99.90
1686;DHT22;840;47.980;7.830;2024-02-23T14:11:31;11.30;99.90
1686;DHT22;840;47.980;7.830;2024-02-23T14:13:59;11.30;99.90
1686;DHT22;840;47.980;7.830;2024-02-23T14:16:26;11.30;99.90
1686;DHT22;840;47.980;7.830;2024-02-23T14:18:54;11.30;99.90
1686;DHT22;840;47.980;7.830;2024-02-23T14:21:21;11.40;99.90
1686;DHT22;840;47.980;7.830;2024-02-23T14:23:50;11.30;99.90
1686;DHT22;840;47.980;7.830;2024-02-23T14:26:17;11.40;99.90
1686;DHT22;840;47.980;7.830;2024-02-23T14:28:44;11.40;99.90
1686;DHT22;840;47.980;7.830;2024-02-23T14:31:12;11.50;99.90
1686;DHT22;840;47.980;7.830;2024-02-23T14:33:38;11.70;99.90
1686;DHT22;840;47.980;7.830;2024-02-23T14:36:06;11.80;99.90
1686;DHT22;840;47.980;7.830;2024-02-23T14:38:36;11.80;99.90
1686;DHT22;840;47.980;7.830;2024-02-23T14:41:03;11.90;99.90
1686;DHT22;840;47.980;7.830;2024-02-23T14:43:30;11.90;99.90
1686;DHT22;840;47.980;7.830;2024-02-23T14:45:56;11.90;99.90
1686;DHT22;840;47.980;7.830;2024-02-23T14:48:25;11.90;99.90
1686;DHT22;840;47.980;7.830;2024-02-23T14:50:51;12.00;99.90
1686;DHT22;840;47.980;7.830;2024-02-23T14:53:18;12.20;99.90
1686;DHT22;840;47.980;7.830;2024-02-23T14:55:45;12.40;99.90
1686;DHT22;840;47.980;7.830;2024-02-23T14:58:12;12.60;99.90
1686;DHT22;840;47.980;7.830;2024-02-23T15:00:39;12.70;99.90
1686;DHT22;840;47.980;7.830;2024-02-23T15:03:06;13.10;99.90
1686;DHT22;840;47.980;7.830;2024-02-23T15:05:35;13.30;99.90
1686;DHT22;840;47.980;7.830;2024-02-23T15:08:02;13.70;99.90
1686;DHT22;840;47.980;7.830;2024-02-23T15:10:29;13.90;99.60
1686;DHT22;840;47.980;7.830;2024-02-23T15:12:56;14.10;99.00
1686;DHT22;840;47.980;7.830;2024-02-23T15:15:23;14.30;99.10
1686;DHT22;840;47.980;7.830;2024-02-23T15:17:50;14.30;97.30
1686;DHT22;840;47.980;7.830;2024-02-23T15:20:17;14.20;95.20
1686;DHT22;840;47.980;7.830;2024-02-23T15:22:46;14.00;93.20
1686;DHT22;840;47.980;7.830;2024-02-23T15:25:15;13.90;92.40
1686;DHT22;840;47.980;7.830;2024-02-23T15:27:41;13.70;92.10
1686;DHT22;840;47.980;7.830;2024-02-23T15:30:09;13.60;93.40
1686;DHT22;840;47.980;7.830;2024-02-23T15:32:36;13.50;93.70
1686;DHT22;840;47.980;7.830;2024-02-23T15:35:03;13.50;93.20
1686;DHT22;840;47.980;7.830;2024-02-23T15:37:30;13.40;93.00
1686;DHT22;840;47.980;7.830;2024-02-23T15:39:58;13.40;93.90
1686;DHT22;840;47.980;7.830;2024-02-23T15:42:25;13.30;92.10
1686;DHT22;840;47.980;7.830;2024-02-23T15:44:51;13.20;92.70
1686;DHT22;840;47.980;7.830;2024-02-23T15:47:19;13.10;93.10
1686;DHT22;840;47.980;7.830;2024-02-23T15:49:46;12.90;92.90
1686;DHT22;840;47.980;7.830;2024-02-23T15:52:13;12.80;94.00
1686;DHT22;840;47.980;7.830;2024-02-23T15:54:40;12.70;94.40
1686;DHT22;840;47.980;7.830;2024-02-23T15:57:08;12.60;94.90
1686;DHT22;840;47.980;7.830;2024-02-23T15:59:35;12.50;94.80
1686;DHT22;840;47.980;7.830;2024-02-23T16:02:01;12.40;94.70
1686;DHT22;840;47.980;7.830;2024-02-23T16:04:28;12.30;95.40
1686;DHT22;840;47.980;7.830;2024-02-23T16:06:55;12.20;94.90
1686;DHT22;840;47.980;7.830;2024-02-23T16:09:22;12.00;95.10
1686;DHT22;840;47.980;7.830;2024-02-23T16:11:48;11.90;95.00
1686;DHT22;840;47.980;7.830;2024-02-23T16:14:16;11.80;95.20
1686;DHT22;840;47.980;7.830;2024-02-23T16:16:43;11.70;95.10
1686;DHT22;840;47.980;7.830;2024-02-23T16:19:10;11.70;95.80
1686;DHT22;840;47.980;7.830;2024-02-23T16:21:37;11.60;96.40
1686;DHT22;840;47.980;7.830;2024-02-23T16:24:05;11.60;95.90
1686;DHT22;840;47.980;7.830;2024-02-23T16:26:32;11.50;96.10
1686;DHT22;840;47.980;7.830;2024-02-23T16:29:01;11.40;96.70